Time;durP1;ratioP1;P1;durP2;ratioP2;P2;SDS_P1;SDS_P2;PMS_P1;PMS_P2;Temp;Humidity;BMP_temperature;BMP_pressure;BME280_temperature;BME280_humidity;BME280_pressure;Samples;Min_cycle;Max_cycle;Signal;HPM_P1;HPM_P2
2023/08/19 00:01:03;;;;;;;0.00;0.00;;;;;;;;;;4956881;29;20059;-86
2023/08/19 00:03:29;;;;;;;0.00;0.00;;;;;;;24.11;nan;100153.72;4958016;28;20291;-85
2023/08/19 00:05:54;;;;;;;0.10;0.10;;;;;;;;;;4957402;29;20282;-86
2023/08/19 00:08:19;;;;;;;0.00;0.00;;;;;;;;;;4956232;28;20515;-85
2023/08/19 00:10:45;;;;;;;0.00;0.00;;;;;;;;;;4954915;29;20039;-84
2023/08/19 00:13:10;;;;;;;0.00;0.00;;;;;;;;;;4966406;28;20043;-84
2023/08/19 00:15:35;;;;;;;0.00;0.00;;;;;;;24.39;nan;100131.09;4977167;28;20275;-84
2023/08/19 00:18:01;;;;;;;0.00;0.00;;;;;;;;;;4978898;28;20030;-84
2023/08/19 00:20:28;;;;;;;0.00;0.00;;;;;;;;;;4975204;28;20079;-83
2023/08/19 00:22:55;;;;;;;0.00;0.00;;;;;;;24.61;nan;100146.50;4965771;28;20042;-84
2023/08/19 00:25:20;;;;;;;0.00;0.00;;;;;;;24.48;nan;100099.91;4962585;28;20038;-84
2023/08/19 00:27:45;;;;;;;0.00;0.00;;;;;;;;;;4955904;28;20039;-84
2023/08/19 00:30:11;;;;;;;0.00;0.00;;;;;;;24.31;nan;100178.31;4963367;28;20205;-84
2023/08/19 00:32:36;;;;;;;0.00;0.00;;;;;;;24.29;nan;100145.31;4959502;28;20047;-84
2023/08/19 00:35:02;;;;;;;0.00;0.00;;;;;;;;;;4958711;28;20046;-83
2023/08/19 00:37:27;;;;;;;0.00;0.00;;;;;;;;;;4972199;28;20467;-83
2023/08/19 00:39:52;;;;;;;0.00;0.00;;;;;;;24.15;nan;100133.25;4956643;28;20275;-83
2023/08/19 00:42:17;;;;;;;0.00;0.00;;;;;;;;;;4962303;28;20027;-84
2023/08/19 00:44:43;;;;;;;0.00;0.00;;;;;;;24.07;nan;100128.28;4973051;28;20693;-84
2023/08/19 00:47:08;;;;;;;0.00;0.00;;;;;;;;;;4979788;28;20698;-83
2023/08/19 00:49:37;;;;;;;0.05;0.05;;;;;;;23.99;nan;100134.13;4966731;28;20063;-84
2023/08/19 00:52:03;;;;;;;0.00;0.00;;;;;;;23.92;nan;100145.09;4960825;28;20031;-85
2023/08/19 00:54:29;;;;;;;0.00;0.00;;;;;;;23.93;nan;100147.56;4970937;28;20062;-83
2023/08/19 00:56:55;;;;;;;0.00;0.00;;;;;;;23.92;nan;100216.13;4995134;28;20536;-84
2023/08/19 00:59:21;;;;;;;0.00;0.00;;;;;;;24.04;nan;100131.47;4980133;28;20027;-83
2023/08/19 01:01:47;;;;;;;0.00;0.00;;;;;;;24.23;nan;100108.47;4980695;28;20041;-83
2023/08/19 01:04:16;;;;;;;0.00;0.00;;;;;;;24.53;nan;100128.88;4979243;28;20041;-85
2023/08/19 01:07:12;;;;;;;0.00;0.00;;;;;;;25.06;nan;100143.44;4981318;28;20416;-84
2023/08/19 01:09:50;;;;;;;0.00;0.00;;;;;;;25.53;nan;100104.84;4982028;28;20066;-84
2023/08/19 01:12:32;;;;;;;0.00;0.00;;;;;;;25.85;nan;100139.97;4972601;28;20043;-84
2023/08/19 01:15:23;;;;;;;0.00;0.00;;;;;;;26.03;nan;100144.16;4963099;29;20182;-84
2023/08/19 01:17:51;;;;;;;0.00;0.00;;;;;;;26.13;nan;100140.69;4977735;28;20051;-83
2023/08/19 01:20:18;;;;;;;0.00;0.00;;;;;;;26.10;nan;100088.91;4969600;28;20032;-83
2023/08/19 01:22:49;;;;;;;0.00;0.00;;;;;;;;;;4979910;28;20049;-83
2023/08/19 01:25:15;;;;;;;;;;;;;;;26.10;nan;100133.09;4998881;28;20099;-84
2023/08/19 01:27:41;;;;;;;0.00;0.00;;;;;;;;;;4978541;28;19918;-84
2023/08/19 01:30:08;;;;;;;0.00;0.00;;;;;;;26.28;nan;100105.50;4958088;28;20037;-84
2023/08/19 01:32:34;;;;;;;0.00;0.00;;;;;;;;;;4965785;28;20094;-84
2023/08/19 01:35:00;;;;;;;0.00;0.00;;;;;;;26.44;nan;100092.81;4964445;28;20043;-86
2023/08/19 01:37:58;;;;;;;0.00;0.00;;;;;;;;;;4972942;28;20039;-85
2023/08/19 01:40:25;;;;;;;0.00;0.00;;;;;;;26.51;nan;100125.09;4926586;28;20039;-84
2023/08/19 01:42:50;;;;;;;0.00;0.00;;;;;;;;;;4979504;28;20038;-84
2023/08/19 01:45:19;;;;;;;0.00;0.00;;;;;;;;;;4988881;28;20126;-84
2023/08/19 01:47:45;;;;;;;0.00;0.00;;;;;;;26.62;nan;100136.78;4996778;28;20511;-84
2023/08/19 01:50:14;;;;;;;0.00;0.00;;;;;;;;;;4976894;28;20031;-84
2023/08/19 01:52:39;;;;;;;0.00;0.00;;;;;;;26.74;nan;100112.94;4963580;28;20095;-84
2023/08/19 01:55:06;;;;;;;0.00;0.00;;;;;;;22.40;nan;159942.72;4964112;28;20043;-83
2023/08/19 01:57:31;;;;;;;0.00;0.00;;;;;;;;;;4964177;28;20086;-84
2023/08/19 01:59:57;;;;;;;0.00;0.00;;;;;;;;;;4973552;28;20038;-83
2023/08/19 02:02:23;;;;;;;0.00;0.00;;;;;;;26.87;nan;100112.44;4983501;28;20027;-84
2023/08/19 02:04:48;;;;;;;0.00;0.00;;;;;;;;;;4965208;28;20035;-84
2023/08/19 02:07:14;;;;;;;0.00;0.00;;;;;;;26.88;nan;100108.63;4964487;28;20528;-84
2023/08/19 02:09:40;;;;;;;0.00;0.00;;;;;;;;;;4964964;28;20031;-84
2023/08/19 02:12:06;;;;;;;0.00;0.00;;;;;;;26.85;nan;100133.59;4963082;28;20062;-83
2023/08/19 02:14:31;;;;;;;0.00;0.00;;;;;;;;;;4980518;28;20516;-84
2023/08/19 02:16:57;;;;;;;0.00;0.00;;;;;;;;;;4954252;28;20119;-83
2023/08/19 02:19:22;;;;;;;0.00;0.00;;;;;;;26.61;nan;100135.19;4959529;28;20126;-83
2023/08/19 02:21:54;;;;;;;0.00;0.00;;;;;;;26.55;nan;100087.41;4961466;28;20045;-84
2023/08/19 02:24:19;;;;;;;0.00;0.00;;;;;;;;;;4963290;28;20039;-84
2023/08/19 02:26:45;;;;;;;0.00;0.00;;;;;;;;;;4955738;28;20031;-84
2023/08/19 02:29:10;;;;;;;0.00;0.00;;;;;;;26.44;nan;100105.56;4967877;28;20031;-83
2023/08/19 02:31:36;;;;;;;0.00;0.00;;;;;;;;;;4964170;28;20039;-83
2023/08/19 02:34:05;;;;;;;0.00;0.00;;;;;;;;;;4958536;29;20035;-84
2023/08/19 02:36:34;;;;;;;0.00;0.00;;;;;;;;;;4939985;29;20040;-84
2023/08/19 02:39:00;;;;;;;0.00;0.00;;;;;;;26.48;nan;100115.59;4960546;28;20043;-83
2023/08/19 02:41:25;;;;;;;0.00;0.00;;;;;;;;;;4962880;28;20104;-84
2023/08/19 02:43:54;;;;;;;0.00;0.00;;;;;;;;;;4966249;28;20045;-83
2023/08/19 02:46:20;;;;;;;0.00;0.00;;;;;;;;;;4966057;28;20122;-83
2023/08/19 02:48:45;;;;;;;0.00;0.00;;;;;;;;;;4984427;28;20117;-84
2023/08/19 02:51:13;;;;;;;0.00;0.00;;;;;;;;;;4977394;28;20031;-83
2023/08/19 02:53:39;;;;;;;0.00;0.00;;;;;;;26.32;nan;100142.94;4966571;29;20098;-84
2023/08/19 02:56:06;;;;;;;0.00;0.00;;;;;;;26.13;nan;100116.28;4956540;28;20453;-84
2023/08/19 02:58:31;;;;;;;0.00;0.00;;;;;;;;;;4966028;29;20078;-84
2023/08/19 03:00:57;;;;;;;0.00;0.00;;;;;;;;;;4965028;29;20039;-83
2023/08/19 03:03:27;;;;;;;0.00;0.00;;;;;;;;;;4973942;28;20039;-84
2023/08/19 03:05:59;;;;;;;0.00;0.00;;;;;;;;;;4977761;28;20043;-84
2023/08/19 03:08:24;;;;;;;0.00;0.00;;;;;;;;;;5001842;28;20034;-84
2023/08/19 03:10:50;;;;;;;0.00;0.00;;;;;;;24.95;nan;100158.75;4987784;28;20122;-84
2023/08/19 03:13:19;;;;;;;0.00;0.00;;;;;;;24.71;nan;100144.72;4988025;28;20513;-84
2023/08/19 03:15:45;;;;;;;0.00;0.00;;;;;;;24.59;nan;100162.97;4988438;28;20031;-83
2023/08/19 03:18:11;;;;;;;0.00;0.00;;;;;;;;;;4986782;28;20049;-84
2023/08/19 03:20:37;;;;;;;0.00;0.00;;;;;;;;;;4984667;28;20047;-84
2023/08/19 03:23:03;;;;;;;0.00;0.00;;;;;;;24.31;nan;100142.34;4978904;28;20034;-83
2023/08/19 03:25:28;;;;;;;0.00;0.00;;;;;;;;;;4987381;28;20043;-84
2023/08/19 03:27:54;;;;;;;0.00;0.00;;;;;;;;;;4984042;28;20417;-84
2023/08/19 03:30:19;;;;;;;0.00;0.00;;;;;;;;;;4981194;28;20070;-84
2023/08/19 03:32:44;;;;;;;0.00;0.00;;;;;;;24.22;nan;100089.81;4991757;28;20396;-83
2023/08/19 03:35:10;;;;;;;0.00;0.00;;;;;;;;;;4986312;28;20035;-84
2023/08/19 03:37:35;;;;;;;0.00;0.00;;;;;;;24.28;nan;100154.47;4997695;28;20404;-82
2023/08/19 03:40:01;;;;;;;0.00;0.00;;;;;;;;;;4994923;28;20127;-82
2023/08/19 03:42:26;;;;;;;0.00;0.00;;;;;;;;;;4985945;28;20041;-83
2023/08/19 03:44:52;;;;;;;0.00;0.00;;;;;;;;;;4985796;28;20043;-83
2023/08/19 03:47:18;;;;;;;0.00;0.00;;;;;;;23.85;nan;100155.25;4987920;28;20050;-83
2023/08/19 03:49:46;;;;;;;0.00;0.00;;;;;;;23.80;nan;100147.09;4986407;28;20099;-83
2023/08/19 03:52:12;;;;;;;0.00;0.00;;;;;;;;;;4986914;28;20050;-83
2023/08/19 03:54:38;;;;;;;0.00;0.00;;;;;;;;;;4978870;28;20058;-83
2023/08/19 03:57:04;;;;;;;0.00;0.00;;;;;;;23.74;nan;100141.63;4987261;28;20039;-83
2023/08/19 03:59:29;;;;;;;0.00;0.00;;;;;;;;;;4987511;28;20031;-84
2023/08/19 04:01:54;;;;;;;0.00;0.00;;;;;;;;;;4989406;28;20043;-83
2023/08/19 04:04:23;;;;;;;0.00;0.00;;;;;;;23.47;nan;100151.44;4987924;28;20039;-84
2023/08/19 04:06:49;;;;;;;0.00;0.00;;;;;;;;;;4988722;28;20058;-83
2023/08/19 04:09:14;;;;;;;;;;;;;;;23.14;nan;100150.34;4984393;28;20401;-83
2023/08/19 04:11:40;;;;;;;;;;;;;;;22.97;nan;100149.50;4980072;28;19918;-83
2023/08/19 04:14:08;;;;;;;;;;;;;;;22.80;nan;100155.66;5000870;28;19917;-83
2023/08/19 04:16:36;;;;;;;;;;;;;;;22.65;nan;100148.13;4986831;28;19914;-83
2023/08/19 04:19:02;;;;;;;;;;;;;;;22.46;nan;100160.16;5004308;28;19914;-84
2023/08/19 04:21:32;;;;;;;;;;;;;;;22.37;nan;100148.09;5005972;28;19921;-84
2023/08/19 04:23:58;;;;;;;;;;;;;;;22.33;nan;100160.41;4999750;28;19937;-83
2023/08/19 04:26:23;;;;;;;;;;;;;;;22.23;nan;100161.03;4978487;28;19922;-83
2023/08/19 04:28:49;;;;;;;;;;;;;;;22.16;nan;100161.13;4989940;28;19914;-83
2023/08/19 04:31:15;;;;;;;;;;;;;;;22.05;nan;100156.59;4980421;28;19914;-83
2023/08/19 04:33:40;;;;;;;;;;;;;;;22.00;nan;100151.91;4968337;29;20021;-83
2023/08/19 04:36:05;;;;;;;;;;;;;;;21.96;nan;100155.31;4965737;28;19914;-83
2023/08/19 04:38:31;;;;;;;;;;;;;;;21.94;nan;100157.41;4965963;29;20303;-83
2023/08/19 04:40:59;;;;;;;;;;;;;;;21.85;nan;100160.44;4973919;28;19926;-83
2023/08/19 04:43:24;;;;;;;;;;;;;;;21.78;nan;100167.81;4976831;28;20368;-83
2023/08/19 04:45:54;;;;;;;;;;;;;;;21.74;nan;100158.59;4990495;28;19924;-83
2023/08/19 04:48:22;;;;;;;;;;;;;;;21.71;nan;100148.28;4983992;28;19989;-83
2023/08/19 04:50:48;;;;;;;;;;;;;;;21.71;nan;100156.34;4984609;28;20177;-83
2023/08/19 04:53:13;;;;;;;;;;;;;;;21.73;nan;100148.88;4983989;28;19937;-83
2023/08/19 04:55:38;;;;;;;;;;;;;;;21.77;nan;100147.34;4983610;28;19914;-83
2023/08/19 04:58:04;;;;;;;;;;;;;;;21.79;nan;100134.50;4980357;28;19934;-83
2023/08/19 05:00:29;;;;;;;;;;;;;;;21.83;nan;100134.81;4965350;28;19914;-83
2023/08/19 05:02:55;;;;;;;;;;;;;;;21.83;nan;100135.66;4965032;28;19914;-82
2023/08/19 05:05:20;;;;;;;;;;;;;;;;;;4965408;28;19920;-85
2023/08/19 05:07:45;;;;;;;;;;;;;;;21.76;nan;100144.91;4963867;28;20294;-85
2023/08/19 05:10:11;;;;;;;;;;;;;;;21.69;nan;100144.19;4960880;28;19914;-85
2023/08/19 05:12:36;;;;;;;;;;;;;;;21.66;nan;100164.31;4974109;28;19925;-85
2023/08/19 05:15:01;;;;;;;;;;;;;;;21.69;nan;100154.97;4986019;28;19922;-85
2023/08/19 05:17:27;;;;;;;;;;;;;;;21.76;nan;100178.03;4962175;28;19942;-86
2023/08/19 05:19:55;;;;;;;;;;;;;;;21.90;nan;100173.22;4960703;28;19914;-85
2023/08/19 05:22:21;;;;;;;;;;;;;;;22.11;nan;100171.78;4961558;28;19914;-87
2023/08/19 05:24:46;;;;;;;;;;;;;;;;;;4960938;28;19914;-87
2023/08/19 05:27:11;;;;;;;;;;;;;;;22.69;nan;100191.56;4960111;28;19914;-85
2023/08/19 05:29:37;;;;;;;;;;;;;;;22.97;nan;100203.44;4976065;28;19926;-85
2023/08/19 05:32:04;;;;;;;;;;;;;;;23.26;nan;100201.53;4968045;28;19915;-87
2023/08/19 05:34:30;;;;;;;;;;;;;;;23.42;nan;100216.13;4959647;28;20335;-85
2023/08/19 05:36:55;;;;;;;;;;;;;;;23.51;nan;100212.78;4962726;29;19918;-85
2023/08/19 05:39:20;;;;;;;;;;;;;;;23.71;nan;100209.56;4961881;29;19924;-85
2023/08/19 05:41:49;;;;;;;;;;;;;;;23.93;nan;100220.47;4963296;28;19965;-87
2023/08/19 05:44:14;;;;;;;;;;;;;;;24.24;nan;100228.19;4974471;28;20009;-85
2023/08/19 05:46:39;;;;;;;;;;;;;;;24.53;nan;100237.81;4984398;28;19918;-87
2023/08/19 05:49:07;;;;;;;;;;;;;;;24.88;nan;100243.88;4976435;28;19977;-86
2023/08/19 05:51:33;;;;;;;;;;;;;;;25.24;nan;100246.97;4971196;28;19914;-85
2023/08/19 05:53:59;;;;;;;;;;;;;;;25.52;nan;100245.88;4982930;28;19918;-84
2023/08/19 05:56:24;;;;;;;;;;;;;;;25.81;nan;100239.09;4982553;28;19925;-85
2023/08/19 05:58:50;;;;;;;0.00;0.00;;;;;;;26.12;nan;100214.91;4979483;28;19977;-87
2023/08/19 06:01:16;;;;;;;0.00;0.00;;;;;;;26.33;nan;100253.78;4975496;28;20039;-87
2023/08/19 06:03:41;;;;;;;0.00;0.00;;;;;;;26.59;nan;100211.38;4979709;28;20046;-85
2023/08/19 06:06:09;;;;;;;0.00;0.00;;;;;;;26.89;nan;100254.06;4994170;28;20078;-85
2023/08/19 06:08:35;;;;;;;0.00;0.00;;;;;;;;;;4981787;28;20042;-85
2023/08/19 06:11:06;;;;;;;0.00;0.00;;;;;;;27.45;nan;100166.47;4981299;28;20139;-85
2023/08/19 06:13:32;;;;;;;0.00;0.00;;;;;;;;;;4981660;28;20042;-86
2023/08/19 06:15:58;;;;;;;0.00;0.00;;;;;;;;;;4982621;28;20566;-86
2023/08/19 06:18:24;;;;;;;0.00;0.00;;;;;;;28.55;nan;100259.22;4981560;28;20102;-85
2023/08/19 06:20:50;;;;;;;0.00;0.00;;;;;;;;;;4978995;28;20039;-85
2023/08/19 06:23:19;;;;;;;0.00;0.00;;;;;;;28.95;nan;100273.75;4963027;28;20043;-85
2023/08/19 06:25:45;;;;;;;0.00;0.00;;;;;;;;;;4968020;28;20038;-85
2023/08/19 06:28:11;;;;;;;0.00;0.00;;;;;;;29.22;nan;100276.03;4982311;28;20122;-86
2023/08/19 06:30:37;;;;;;;0.00;0.00;;;;;;;;;;4983234;28;20405;-85
2023/08/19 06:33:02;;;;;;;0.00;0.00;;;;;;;;;;4977256;28;20031;-85
2023/08/19 06:35:28;;;;;;;0.00;0.00;;;;;;;29.53;nan;100273.09;4973286;28;20082;-86
2023/08/19 06:37:54;;;;;;;0.00;0.00;;;;;;;;;;4997463;28;20070;-85
2023/08/19 06:40:21;;;;;;;0.00;0.00;;;;;;;29.73;nan;100278.44;4981054;28;20090;-85
2023/08/19 06:42:48;;;;;;;0.00;0.00;;;;;;;;;;4975661;28;20039;-84
2023/08/19 06:45:15;;;;;;;0.00;0.00;;;;;;;29.78;nan;100275.66;4976590;28;20039;-86
2023/08/19 06:47:41;;;;;;;0.00;0.00;;;;;;;29.91;nan;100303.34;4974607;28;20531;-86
2023/08/19 06:50:07;;;;;;;0.00;0.00;;;;;;;30.04;nan;100316.34;4980553;28;20075;-85
2023/08/19 06:52:33;;;;;;;0.00;0.00;;;;;;;;;;4976058;28;20445;-85
2023/08/19 06:54:58;;;;;;;0.00;0.00;;;;;;;30.33;nan;100290.97;4975530;28;20039;-85
2023/08/19 06:57:29;;;;;;;0.00;0.00;;;;;;;30.50;nan;100361.47;4975965;28;20027;-88
2023/08/19 07:00:11;;;;;;;0.00;0.00;;;;;;;30.90;nan;100311.06;4974555;28;20030;-85
2023/08/19 07:02:37;;;;;;;0.00;0.00;;;;;;;31.40;nan;100316.94;4974153;28;20085;-85
2023/08/19 07:05:15;;;;;;;0.00;0.00;;;;;;;31.82;nan;100317.94;4973170;28;20033;-85
2023/08/19 07:07:46;;;;;;;0.00;0.00;;;;;;;32.05;nan;100323.59;4958052;28;20498;-85
2023/08/19 07:10:14;;;;;;;0.00;0.00;;;;;;;32.23;nan;100308.22;4957667;28;20055;-85
2023/08/19 07:12:40;;;;;;;0.00;0.00;;;;;;;32.54;nan;100374.16;4961905;28;20134;-86
2023/08/19 07:15:11;;;;;;;0.00;0.00;;;;;;;32.91;nan;100326.56;4957010;28;20047;-85
2023/08/19 07:17:41;;;;;;;0.00;0.00;;;;;;;33.19;nan;100312.88;4958394;28;20054;-86
2023/08/19 07:20:09;;;;;;;0.00;0.00;;;;;;;33.50;nan;100334.88;4956244;28;20059;-89
2023/08/19 07:22:37;;;;;;;0.00;0.00;;;;;;;33.63;nan;100325.84;4972751;28;20043;-85
2023/08/19 07:25:03;;;;;;;0.00;0.00;;;;;;;;;;4982966;28;20464;-85
2023/08/19 07:27:29;;;;;;;0.00;0.00;;;;;;;34.23;nan;100330.09;4975109;28;20063;-85
2023/08/19 07:29:55;;;;;;;0.00;0.00;;;;;;;;;;4973119;28;20086;-86
2023/08/19 07:32:21;;;;;;;0.00;0.00;;;;;;;34.41;nan;100363.13;4984719;28;20038;-85
2023/08/19 07:34:46;;;;;;;0.00;0.00;;;;;;;34.43;nan;100342.44;4974818;28;20065;-85
2023/08/19 07:37:11;;;;;;;0.00;0.00;;;;;;;34.59;nan;100336.56;4974585;28;19918;-87
2023/08/19 07:39:38;;;;;;;0.00;0.00;;;;;;;34.64;nan;100328.19;4965537;28;20039;-85
2023/08/19 07:42:03;;;;;;;0.00;0.00;;;;;;;34.67;nan;100350.31;4973444;28;20031;-85
2023/08/19 07:44:29;;;;;;;0.00;0.00;;;;;;;;;;4959240;28;20039;-85
2023/08/19 07:46:54;;;;;;;0.00;0.00;;;;;;;34.77;nan;100337.44;4956338;28;20039;-90
2023/08/19 07:49:19;;;;;;;0.00;0.00;;;;;;;35.28;nan;100347.72;4954554;28;20389;-87
2023/08/19 07:51:45;;;;;;;0.00;0.00;;;;;;;35.71;nan;100348.88;4954710;28;20031;-86
2023/08/19 07:54:10;;;;;;;0.00;0.00;;;;;;;35.91;nan;100350.13;4954737;28;20039;-85
2023/08/19 07:56:35;;;;;;;;;;;;;;;36.13;nan;100352.69;4976375;28;20058;-84
2023/08/19 07:59:01;;;;;;;;;;;;;;;36.23;nan;100348.81;4969060;28;20001;-84
2023/08/19 08:01:26;;;;;;;;;;;;;;;36.25;nan;100354.75;4991518;28;19941;-84
2023/08/19 08:03:51;;;;;;;;;;;;;;;36.48;nan;100366.34;4982207;28;20171;-84
2023/08/19 08:06:16;;;;;;;;;;;;;;;36.78;nan;100358.16;4998839;28;19922;-84
2023/08/19 08:08:41;;;;;;;;;;;;;;;36.73;nan;100350.03;4999063;28;20300;-84
2023/08/19 08:11:06;;;;;;;;;;;;;;;36.82;nan;100358.28;4981301;28;19925;-84
2023/08/19 08:13:32;;;;;;;;;;;;;;;37.10;nan;100342.06;4972104;28;20008;-84
2023/08/19 08:15:58;;;;;;;;;;;;;;;37.33;nan;100346.13;4979812;28;20443;-84
2023/08/19 08:18:23;;;;;;;;;;;;;;;37.39;nan;100350.28;4978550;28;19978;-84
2023/08/19 08:20:49;;;;;;;;;;;;;;;37.37;nan;100352.56;4979252;28;19941;-84
2023/08/19 08:23:14;;;;;;;;;;;;;;;37.57;nan;100355.69;4979053;28;19969;-84
2023/08/19 08:25:39;;;;;;;;;;;;;;;37.49;nan;100353.75;4978333;28;19914;-84
2023/08/19 08:28:05;;;;;;;;;;;;;;;37.61;nan;100351.91;4980375;28;19941;-84
2023/08/19 08:30:30;;;;;;;;;;;;;;;37.74;nan;100354.72;4973349;28;19918;-84
2023/08/19 08:32:55;;;;;;;;;;;;;;;37.79;nan;100352.53;4968619;28;19918;-84
2023/08/19 08:35:20;;;;;;;;;;;;;;;37.79;nan;100360.81;4975146;28;19926;-84
2023/08/19 08:37:45;;;;;;;;;;;;;;;37.95;nan;100366.50;4971029;28;19974;-84
2023/08/19 08:40:11;;;;;;;;;;;;;;;38.36;nan;100377.78;4977549;28;19914;-84
2023/08/19 08:42:37;;;;;;;;;;;;;;;38.58;nan;100382.88;4979129;28;19914;-84
2023/08/19 08:45:02;;;;;;;;;;;;;;;38.86;nan;100371.16;4978779;28;19914;-84
2023/08/19 08:47:28;;;;;;;;;;;;;;;39.02;nan;100368.47;4978037;28;20239;-84
2023/08/19 08:49:54;;;;;;;;;;;;;;;39.19;nan;100361.88;4968420;28;19918;-84
2023/08/19 08:52:20;;;;;;;;;;;;;;;39.74;nan;100362.28;4970934;28;20012;-84
2023/08/19 08:54:46;;;;;;;;;;;;;;;40.28;nan;100356.25;4974764;28;20012;-84
2023/08/19 08:57:14;;;;;;;;;;;;;;;40.58;nan;100364.91;4969621;28;20288;-84
2023/08/19 08:59:39;;;;;;;;;;;;;;;40.82;nan;100365.91;4970504;28;19920;-84
2023/08/19 09:02:05;;;;;;;;;;;;;;;41.09;nan;100366.88;4954872;28;20024;-84
2023/08/19 09:04:31;;;;;;;;;;;;;;;41.47;nan;100374.47;4956079;28;20229;-85
2023/08/19 09:07:16;;;;;;;;;;;;;;;41.35;nan;100369.06;4971056;28;19978;-84
2023/08/19 09:09:45;;;;;;;;;;;;;;;41.45;nan;100370.44;4970585;28;19918;-84
2023/08/19 09:12:11;;;;;;;;;;;;;;;41.22;nan;100373.16;4967276;28;19936;-84
2023/08/19 09:14:40;;;;;;;;;;;;;;;41.05;nan;100372.38;4976138;28;19953;-85
2023/08/19 09:17:06;;;;;;;;;;;;;;;40.92;nan;100368.09;4969843;28;20320;-85
2023/08/19 09:19:31;;;;;;;;;;;;;;;40.71;nan;100363.69;4972235;28;19914;-85
2023/08/19 09:21:57;;;;;;;;;;;;;;;40.50;nan;100366.72;4971366;28;20171;-84
2023/08/19 09:24:22;;;;;;;;;;;;;;;39.91;nan;100371.13;4970593;28;19929;-84
2023/08/19 09:26:53;;;;;;;;;;;;;;;39.89;nan;100361.56;4975708;28;20380;-84
2023/08/19 09:29:19;;;;;;;;;;;;;;;39.76;nan;100358.03;4976462;28;19914;-84
2023/08/19 09:31:44;;;;;;;;;;;;;;;39.38;nan;100356.56;4977303;28;19921;-84
2023/08/19 09:34:13;;;;;;;;;;;;;;;39.26;nan;100357.38;4972370;28;20339;-84
2023/08/19 09:36:40;;;;;;;;;;;;;;;38.77;nan;100357.44;4966196;28;20364;-84
2023/08/19 09:39:05;;;;;;;;;;;;;;;38.59;nan;100351.34;4989433;28;20094;-84
2023/08/19 09:41:31;;;;;;;;;;;;;;;38.14;nan;100352.22;4973395;28;20557;-84
2023/08/19 09:43:59;;;;;;;;;;;;;;;37.56;nan;100354.84;4975588;28;19925;-85
2023/08/19 09:46:31;;;;;;;;;;;;;;;36.78;nan;100336.91;4998217;28;19914;-84
2023/08/19 09:48:57;;;;;;;;;;;;;;;36.50;nan;100335.72;4976315;28;20337;-84
2023/08/19 09:51:26;;;;;;;;;;;;;;;36.25;nan;100341.00;4970477;28;19914;-85
2023/08/19 09:53:53;;;;;;;;;;;;;;;36.10;nan;100344.28;4972070;28;19945;-84
2023/08/19 09:56:19;;;;;;;;;;;;;;;35.91;nan;100333.63;4978870;28;20327;-84
2023/08/19 09:58:44;;;;;;;;;;;;;;;35.82;nan;100332.84;4979889;28;19914;-84
2023/08/19 10:01:10;;;;;;;;;;;;;;;35.89;nan;100328.44;4978531;28;20387;-84
2023/08/19 10:03:35;;;;;;;;;;;;;;;36.01;nan;100333.28;4978741;28;19921;-84
2023/08/19 10:06:01;;;;;;;;;;;;;;;36.03;nan;100338.47;4975900;28;20360;-84
2023/08/19 10:08:30;;;;;;;;;;;;;;;36.07;nan;100328.41;4969589;28;19925;-84
2023/08/19 10:10:56;;;;;;;;;;;;;;;36.22;nan;100333.41;4976455;28;20348;-84
2023/08/19 10:13:22;;;;;;;;;;;;;;;36.28;nan;100340.34;4991891;28;19921;-84
2023/08/19 10:15:47;;;;;;;;;;;;;;;36.31;nan;100344.41;4977108;28;19965;-84
2023/08/19 10:18:25;;;;;;;;;;;;;;;36.63;nan;100356.75;4976212;28;19918;-84
2023/08/19 10:20:53;;;;;;;;;;;;;;;36.84;nan;100358.75;4975380;28;19921;-84
2023/08/19 10:23:20;;;;;;;;;;;;;;;36.95;nan;100369.06;4982734;28;19917;-84
2023/08/19 10:25:45;;;;;;;;;;;;;;;36.89;nan;100364.06;4989351;28;19914;-84
2023/08/19 10:28:12;;;;;;;;;;;;;;;36.65;nan;100373.75;4973490;28;20291;-84
2023/08/19 10:30:37;;;;;;;;;;;;;;;36.46;nan;100371.38;4967025;28;19920;-84
2023/08/19 10:33:04;;;;;;;;;;;;;;;36.34;nan;100388.59;4956138;28;19915;-84
2023/08/19 10:35:50;;;;;;;;;;;;;;;36.12;nan;100381.38;4958045;28;20364;-84
2023/08/19 10:38:15;;;;;;;;;;;;;;;35.71;nan;100379.94;4974840;28;19918;-84
2023/08/19 10:40:40;;;;;;;;;;;;;;;35.66;nan;100373.78;4973251;28;19925;-84
2023/08/19 10:43:05;;;;;;;;;;;;;;;35.85;nan;100387.19;4970966;28;19918;-84
2023/08/19 10:45:31;;;;;;;;;;;;;;;36.00;nan;100378.44;4979730;28;20292;-84
2023/08/19 10:47:56;;;;;;;;;;;;;;;36.03;nan;100382.50;4977895;28;19925;-84
2023/08/19 10:50:24;;;;;;;;;;;;;;;35.96;nan;100382.97;4979255;28;20409;-84
2023/08/19 10:52:59;;;;;;;;;;;;;;;35.75;nan;100384.78;4974406;28;19976;-84
2023/08/19 10:55:24;;;;;;;;;;;;;;;35.67;nan;100381.72;4976977;28;20353;-83
2023/08/19 10:57:50;;;;;;;;;;;;;;;35.58;nan;100389.13;4981409;28;19969;-84
2023/08/19 11:00:15;;;;;;;;;;;;;;;35.66;nan;100384.78;4981103;28;19914;-84
2023/08/19 11:02:40;;;;;;;;;;;;;;;35.68;nan;100388.03;4980026;28;20000;-83
2023/08/19 11:05:06;;;;;;;;;;;;;;;35.67;nan;100403.72;4979567;28;20415;-84
2023/08/19 11:07:33;;;;;;;;;;;;;;;35.80;nan;100395.63;4980181;28;19925;-84
2023/08/19 11:09:58;;;;;;;;;;;;;;;35.97;nan;100400.31;4978625;28;19914;-84
2023/08/19 11:12:26;;;;;;;;;;;;;;;36.14;nan;100405.81;4978426;28;20402;-84
2023/08/19 11:14:52;;;;;;;;;;;;;;;36.34;nan;100393.28;4979831;28;20376;-84
2023/08/19 11:17:18;;;;;;;;;;;;;;;36.63;nan;100400.03;4979767;28;19920;-84
2023/08/19 11:19:44;;;;;;;;;;;;;;;36.70;nan;100394.81;4977072;28;19918;-84
2023/08/19 11:22:13;;;;;;;;;;;;;;;36.63;nan;100389.81;4972746;28;19918;-84
2023/08/19 11:24:39;;;;;;;;;;;;;;;36.65;nan;100395.00;4974575;28;19954;-84
2023/08/19 11:27:05;;;;;;;;;;;;;;;36.57;nan;100396.63;4976902;28;19957;-84
2023/08/19 11:29:31;;;;;;;;;;;;;;;36.53;nan;100410.22;4976901;28;19914;-84
2023/08/19 11:31:57;;;;;;;;;;;;;;;36.51;nan;100404.25;4959767;28;19918;-84
2023/08/19 11:34:25;;;;;;;;;;;;;;;36.56;nan;100412.31;4968637;28;20288;-84
2023/08/19 11:36:51;;;;;;;;;;;;;;;36.83;nan;100404.81;4967413;28;19915;-84
2023/08/19 11:39:17;;;;;;;;;;;;;;;37.11;nan;100412.59;4976755;28;19924;-84
2023/08/19 11:41:45;;;;;;;;;;;;;;;37.68;nan;100411.25;4976942;28;19914;-84
2023/08/19 11:44:10;;;;;;;;;;;;;;;38.05;nan;100405.91;4976307;28;19941;-84
2023/08/19 11:46:36;;;;;;;;;;;;;;;38.78;nan;100419.03;4975355;28;19953;-84
2023/08/19 11:49:08;;;;;;;;;;;;;;;39.88;nan;100423.63;4976249;28;19914;-84
2023/08/19 11:51:37;;;;;;;;;;;;;;;40.50;nan;100421.31;4968491;28;20021;-84
2023/08/19 11:54:04;;;;;;;;;;;;;;;40.18;nan;100428.78;4956607;28;19919;-84
2023/08/19 11:56:29;;;;;;;;;;;;;;;39.55;nan;100429.38;4956306;28;19922;-84
2023/08/19 11:58:55;;;;;;;;;;;;;;;39.00;nan;100421.38;4991705;28;20273;-84
2023/08/19 12:01:21;;;;;;;;;;;;;;;39.69;nan;100436.13;4977370;28;20380;-84
2023/08/19 12:03:47;;;;;;;;;;;;;;;39.70;nan;100436.94;4975955;28;19914;-84
2023/08/19 12:06:13;;;;;;;;;;;;;;;39.89;nan;100439.09;4990487;28;20348;-84
2023/08/19 12:08:40;;;;;;;;;;;;;;;39.97;nan;100442.84;4968392;28;19941;-84
2023/08/19 12:11:05;;;;;;;;;;;;;;;40.38;nan;100449.13;4975497;28;19961;-84
2023/08/19 12:13:30;;;;;;;;;;;;;;;40.60;nan;100448.53;4994898;28;19914;-84
2023/08/19 12:15:55;;;;;;;;;;;;;;;40.29;nan;100441.00;4979043;28;19934;-84
2023/08/19 12:18:21;;;;;;;;;;;;;;;39.75;nan;100450.53;4975922;28;19925;-84
2023/08/19 12:20:48;;;;;;;;;;;;;;;39.27;nan;100457.78;4980719;28;19945;-84
2023/08/19 12:23:13;;;;;;;;;;;;;;;38.85;nan;100463.50;4995119;28;19942;-84
2023/08/19 12:25:48;;;;;;;;;;;;;;;38.37;nan;100448.44;4980577;28;19918;-84
2023/08/19 12:28:14;;;;;;;;;;;;;;;37.93;nan;100443.34;4994702;28;19914;-84
2023/08/19 12:30:39;;;;;;;;;;;;;;;37.39;nan;100449.56;4976242;28;19941;-84
2023/08/19 12:33:05;;;;;;;;;;;;;;;36.94;nan;100450.13;4963789;28;19938;-84
2023/08/19 12:35:30;;;;;;;;;;;;;;;36.63;nan;100442.16;4959958;28;20175;-84
2023/08/19 12:37:56;;;;;;;;;;;;;;;36.28;nan;100444.97;4959554;28;19918;-84
2023/08/19 12:40:21;;;;;;;;;;;;;;;35.88;nan;100438.84;4959163;28;19922;-84
2023/08/19 12:42:46;;;;;;;;;;;;;;;35.55;nan;100461.28;4958627;28;19914;-84
2023/08/19 12:45:11;;;;;;;;;;;;;;;35.28;nan;100454.94;4960551;28;19914;-84
2023/08/19 12:47:38;;;;;;;;;;;;;;;35.05;nan;100461.63;4969551;28;19918;-84
2023/08/19 12:50:04;;;;;;;;;;;;;;;34.81;nan;100459.28;4966383;28;20400;-84
2023/08/19 12:52:29;;;;;;;;;;;;;;;34.62;nan;100452.09;4976152;28;20484;-84
2023/08/19 12:54:54;;;;;;;;;;;;;;;34.38;nan;100460.63;4976424;28;19918;-83